Time;durP1;ratioP1;P1;durP2;ratioP2;P2;SDS_P1;SDS_P2;PMS_P1;PMS_P2;Temp;Humidity;BMP_temperature;BMP_pressure;BME280_temperature;BME280_humidity;BME280_pressure;Samples;Min_cycle;Max_cycle;Signal;HPM_P1;HPM_P2
2021/04/04 00:03:35;;;;;;;10.40;4.60;;;;;;;5.83;47.88;98295.66;10627612;27;20043;-56
2021/04/04 00:08:37;;;;;;;10.73;5.72;;;;;;;5.79;47.97;98295.09;10627777;27;20046;-54
2021/04/04 00:13:39;;;;;;;20.48;10.35;;;;;;;5.79;47.70;98300.31;10629511;27;20062;-56
2021/04/04 00:18:41;;;;;;;8.48;5.13;;;;;;;5.82;47.44;98301.81;10629451;27;20065;-53
2021/04/04 00:23:43;;;;;;;8.57;3.95;;;;;;;5.70;47.63;98306.34;10628263;27;20054;-56
2021/04/04 00:28:45;;;;;;;8.80;4.78;;;;;;;5.53;47.62;98299.97;10626976;27;20055;-56
2021/04/04 00:33:47;;;;;;;8.93;4.15;;;;;;;5.47;47.96;98297.91;10635831;27;20058;-56
2021/04/04 00:38:49;;;;;;;8.77;4.47;;;;;;;5.39;47.93;98314.22;10643363;27;20043;-53
2021/04/04 00:43:50;;;;;;;10.88;4.88;;;;;;;5.39;47.97;98305.53;10642936;27;20042;-57
2021/04/04 00:48:53;;;;;;;9.15;5.00;;;;;;;5.38;47.64;98304.72;10609104;27;20040;-54
2021/04/04 00:53:54;;;;;;;9.45;4.85;;;;;;;5.37;47.54;98303.09;10599240;27;20550;-57
2021/04/04 00:58:57;;;;;;;8.95;4.93;;;;;;;5.34;47.80;98310.34;10598375;27;20040;-54
2021/04/04 01:04:00;;;;;;;10.95;5.47;;;;;;;5.33;47.74;98317.34;10598467;27;20058;-55
2021/04/04 01:09:02;;;;;;;11.10;5.40;;;;;;;5.35;47.95;98322.41;10627746;27;20055;-55
2021/04/04 01:14:12;;;;;;;9.07;4.43;;;;;;;5.31;48.24;98317.47;10640796;27;20505;-54
2021/04/04 01:19:27;;;;;;;7.55;5.00;;;;;;;5.32;47.91;98320.88;10640868;27;20529;-55
2021/04/04 01:24:45;;;;;;;7.82;3.85;;;;;;;5.36;48.04;98319.69;10641229;27;20047;-55
2021/04/04 01:29:51;;;;;;;7.68;3.60;;;;;;;5.41;47.74;98312.28;10641996;27;20043;-55
2021/04/04 01:34:53;;;;;;;8.73;3.35;;;;;;;5.38;47.86;98322.97;10627402;27;20476;-57
2021/04/04 01:40:00;;;;;;;8.27;3.55;;;;;;;5.50;47.67;98321.91;10604252;27;20128;-54
2021/04/04 01:45:04;;;;;;;8.25;3.30;;;;;;;5.52;47.33;98314.78;10597940;27;20112;-54
2021/04/04 01:50:06;;;;;;;;;;;;;;;5.66;47.31;98324.00;10596903;27;20053;-57
2021/04/04 01:55:10;;;;;;;6.88;3.00;;;;;;;5.69;46.85;98326.34;10594157;28;19949;-54
2021/04/04 02:00:15;;;;;;;4.93;2.55;;;;;;;5.65;46.78;98329.38;10592922;28;20051;-58
2021/04/04 02:05:18;;;;;;;7.57;3.00;;;;;;;5.69;47.21;98315.09;10591762;27;20078;-55
2021/04/04 02:10:23;;;;;;;8.73;2.88;;;;;;;5.82;46.79;98326.13;10590034;28;20062;-61
2021/04/04 02:15:29;;;;;;;10.45;4.32;;;;;;;5.88;46.24;98323.00;10593208;28;20048;-55
2021/04/04 02:20:33;;;;;;;9.68;4.45;;;;;;;5.97;46.61;98335.25;10592165;28;20043;-56
2021/04/04 02:25:35;;;;;;;10.70;4.55;;;;;;;5.98;46.41;98336.88;10590088;28;20056;-56
2021/04/04 02:30:38;;;;;;;6.95;3.40;;;;;;;5.91;46.25;98340.13;10589073;28;20514;-55
2021/04/04 02:35:42;;;;;;;7.72;3.65;;;;;;;5.89;46.22;98336.84;10590485;28;20055;-55
2021/04/04 02:40:47;;;;;;;8.75;4.07;;;;;;;5.84;46.28;98334.63;10593231;28;20115;-52
2021/04/04 02:45:51;;;;;;;9.00;4.18;;;;;;;5.86;46.29;98337.13;10590331;28;20522;-53
2021/04/04 02:50:54;;;;;;;12.38;4.55;;;;;;;5.77;46.40;98342.16;10591417;28;20130;-56
2021/04/04 02:55:59;;;;;;;10.45;5.32;;;;;;;5.77;47.03;98346.56;10588706;28;20052;-55
2021/04/04 03:01:03;;;;;;;6.70;3.85;;;;;;;5.93;46.35;98349.50;10589975;27;20387;-55
2021/04/04 03:06:07;;;;;;;12.15;4.65;;;;;;;5.90;46.50;98344.53;10630103;27;20488;-55
2021/04/04 03:11:11;;;;;;;11.85;5.35;;;;;;;5.96;46.57;98349.22;10629738;27;20054;-55
2021/04/04 03:16:15;;;;;;;10.98;5.47;;;;;;;6.11;46.33;98354.88;10630728;27;20142;-53
2021/04/04 03:21:18;;;;;;;11.77;5.10;;;;;;;6.17;46.19;98348.31;10630350;27;20043;-53
2021/04/04 03:26:22;;;;;;;10.00;4.70;;;;;;;6.25;45.79;98348.47;10629138;27;20467;-53
2021/04/04 03:31:25;;;;;;;8.20;4.15;;;;;;;6.30;46.26;98351.47;10629226;27;20411;-54
2021/04/04 03:36:28;;;;;;;7.70;3.17;;;;;;;6.31;45.78;98342.69;10630067;27;20506;-53
2021/04/04 03:41:34;;;;;;;10.57;4.17;;;;;;;6.32;45.84;98344.34;10629202;27;20047;-56
2021/04/04 03:46:37;;;;;;;6.55;3.30;;;;;;;6.44;45.59;98342.41;10631271;27;20429;-52
2021/04/04 03:51:40;;;;;;;11.80;4.05;;;;;;;6.60;45.78;98349.69;10629664;27;20069;-56
2021/04/04 03:56:48;;;;;;;7.18;3.15;;;;;;;6.88;45.30;98345.38;10628740;27;20055;-56
2021/04/04 04:01:52;;;;;;;7.28;3.20;;;;;;;7.03;45.24;98343.16;10629532;27;20138;-54
2021/04/04 04:06:55;;;;;;;14.23;5.13;;;;;;;7.23;44.71;98344.72;10629164;27;20103;-55
2021/04/04 04:11:57;;;;;;;13.80;5.40;;;;;;;7.38;44.57;98352.94;10628590;27;20057;-55
2021/04/04 04:17:03;;;;;;;8.10;4.57;;;;;;;7.56;44.21;98347.78;10631710;27;20312;-54
2021/04/04 04:22:05;;;;;;;9.82;4.35;;;;;;;7.76;43.90;98356.38;10629311;27;20103;-55
2021/04/04 04:27:07;;;;;;;13.05;4.95;;;;;;;7.94;43.83;98359.00;10626049;27;20405;-55
2021/04/04 04:32:11;;;;;;;14.98;5.65;;;;;;;8.15;43.17;98359.56;10628999;27;20051;-56
2021/04/04 04:37:14;;;;;;;12.82;5.88;;;;;;;8.34;43.10;98352.53;10626767;28;20097;-55
2021/04/04 04:42:17;;;;;;;16.80;6.05;;;;;;;8.55;42.80;98353.09;10630179;28;20047;-58
2021/04/04 04:47:20;;;;;;;16.67;5.67;;;;;;;8.70;42.41;98356.81;10632749;28;20048;-56
2021/04/04 04:52:23;;;;;;;9.57;4.60;;;;;;;8.94;42.43;98355.38;10628083;27;20428;-55
2021/04/04 04:57:26;;;;;;;10.50;4.60;;;;;;;9.29;41.95;98351.81;10627199;28;20043;-58
2021/04/04 05:02:28;;;;;;;13.10;4.80;;;;;;;9.57;41.53;98349.81;10627021;28;20047;-56
2021/04/04 05:07:33;;;;;;;11.27;4.72;;;;;;;9.92;40.78;98353.25;10626475;27;20357;-54
2021/04/04 05:12:42;;;;;;;8.98;4.43;;;;;;;10.11;40.37;98357.41;10629051;28;20050;-54
2021/04/04 05:17:45;;;;;;;12.55;4.75;;;;;;;10.25;40.24;98358.56;10626637;27;20050;-57
2021/04/04 05:22:47;;;;;;;13.83;4.87;;;;;;;10.68;40.13;98367.19;10632570;27;20372;-56
2021/04/04 05:27:49;;;;;;;10.82;4.82;;;;;;;11.18;39.44;98368.81;10635948;27;20059;-53
2021/04/04 05:32:52;;;;;;;14.05;4.93;;;;;;;11.65;38.54;98360.13;10641000;27;20042;-57
2021/04/04 05:37:54;;;;;;;13.07;4.95;;;;;;;12.34;38.58;98361.09;10634234;27;20382;-56
2021/04/04 05:42:57;;;;;;;11.98;4.78;;;;;;;15.20;35.99;98368.25;10631627;27;20050;-54
2021/04/04 05:48:16;;;;;;;11.93;5.22;;;;;;;16.81;33.31;98365.28;10631772;27;20468;-56
2021/04/04 05:53:25;;;;;;;17.65;5.03;;;;;;;17.27;32.81;98375.06;10632562;27;20157;-55
2021/04/04 05:58:31;;;;;;;12.18;4.45;;;;;;;17.66;32.01;98373.34;10631951;27;20050;-57
2021/04/04 06:03:54;;;;;;;12.23;4.97;;;;;;;17.66;31.38;98378.66;10633932;27;20043;-58
2021/04/04 06:09:08;;;;;;;11.65;4.50;;;;;;;18.66;30.24;98375.56;10636588;27;20055;-56
2021/04/04 06:14:22;;;;;;;15.75;4.53;;;;;;;19.77;28.93;98372.19;10633027;27;20051;-56
2021/04/04 06:19:36;;;;;;;9.18;4.82;;;;;;;22.56;26.24;98378.25;10632822;27;20148;-56
2021/04/04 06:24:46;;;;;;;12.90;4.90;;;;;;;23.17;24.85;98368.59;10632721;27;20039;-58
2021/04/04 06:30:21;;;;;;;7.50;4.65;;;;;;;22.16;25.27;98373.78;10645125;27;20103;-58
2021/04/04 06:35:26;;;;;;;;;;;;;;;22.48;28.70;98378.66;10632574;27;20043;-57
2021/04/04 06:40:37;;;;;;;10.20;4.28;;;;;;;24.66;23.42;98371.28;10634887;27;19923;-56
2021/04/04 06:45:45;;;;;;;11.82;4.50;;;;;;;27.71;21.95;98364.50;10630644;27;20047;-57
2021/04/04 06:50:55;;;;;;;14.18;4.60;;;;;;;33.73;16.81;98366.53;10630565;27;20113;-59
2021/04/04 06:56:13;;;;;;;11.45;5.35;;;;;;;38.17;13.31;98365.00;10630037;27;20043;-57
2021/04/04 07:01:35;;;;;;;8.05;3.28;;;;;;;41.35;11.18;98369.94;10629623;27;20487;-57
2021/04/04 07:07:10;;;;;;;9.45;3.50;;;;;;;40.44;11.50;98367.75;10630259;27;20050;-56
2021/04/04 07:12:31;;;;;;;8.60;2.80;;;;;;;40.15;10.47;98378.13;10615374;27;20441;-58
2021/04/04 07:17:44;;;;;;;8.07;2.70;;;;;;;39.62;9.87;98371.34;10629134;27;20072;-57
2021/04/04 07:23:04;;;;;;;8.70;2.67;;;;;;;36.83;10.81;98377.34;10630763;27;20070;-57
2021/04/04 07:28:12;;;;;;;6.75;3.35;;;;;;;34.46;11.22;98374.25;10639044;27;20071;-56
2021/04/04 07:33:26;;;;;;;7.80;2.70;;;;;;;32.69;11.85;98376.78;10631914;27;20059;-55
2021/04/04 07:38:34;;;;;;;4.72;2.30;;;;;;;33.55;11.22;98375.78;10630241;27;20100;-58
2021/04/04 07:43:43;;;;;;;6.40;2.53;;;;;;;36.82;9.56;98373.78;10632357;27;20039;-57
2021/04/04 07:49:00;;;;;;;8.50;2.30;;;;;;;39.05;8.21;98382.47;10628925;27;20103;-56
2021/04/04 07:54:05;;;;;;;7.40;1.52;;;;;;;41.58;6.93;98380.97;10627078;27;20050;-57
2021/04/04 07:59:17;;;;;;;5.15;1.70;;;;;;;37.20;8.93;98370.06;10627281;27;20042;-57
2021/04/04 08:04:29;;;;;;;9.60;1.58;;;;;;;36.66;8.76;98374.78;10628013;27;20039;-58
2021/04/04 08:09:42;;;;;;;4.90;1.50;;;;;;;38.82;7.71;98379.44;10627718;27;20047;-56
2021/04/04 08:14:51;;;;;;;6.47;2.00;;;;;;;34.97;9.01;98370.69;10625713;27;20042;-57
2021/04/04 08:19:59;;;;;;;7.53;1.90;;;;;;;30.59;11.34;98375.28;10627651;27;20043;-62
2021/04/04 08:25:07;;;;;;;7.03;2.05;;;;;;;31.38;11.04;98369.97;10626712;27;20123;-57
2021/04/04 08:30:17;;;;;;;4.50;1.02;;;;;;;34.07;9.58;98359.59;10628188;27;20069;-59
2021/04/04 08:35:24;;;;;;;4.82;1.67;;;;;;;31.31;10.35;98364.09;10626748;27;20447;-58
2021/04/04 08:40:27;;;;;;;8.75;3.92;;;;;;;27.67;12.13;98374.22;10627268;28;20039;-56
2021/04/04 08:45:34;;;;;;;10.13;3.72;;;;;;;25.21;13.66;98375.50;10624550;28;20047;-58
2021/04/04 08:50:41;;;;;;;15.52;2.92;;;;;;;23.85;14.52;98376.53;10625333;28;20047;-57
2021/04/04 08:55:46;;;;;;;7.82;1.80;;;;;;;27.35;12.72;98363.78;10631191;27;20438;-57
2021/04/04 09:00:52;;;;;;;5.45;1.10;;;;;;;27.86;12.24;98357.44;10636416;27;20167;-58
2021/04/04 09:06:01;;;;;;;8.40;1.48;;;;;;;25.69;13.25;98357.50;10635250;27;20493;-58
2021/04/04 09:11:04;;;;;;;6.15;1.50;;;;;;;23.72;14.80;98352.75;10633787;27;20066;-58
2021/04/04 09:16:09;;;;;;;;;;;;;;;22.83;15.44;98348.19;10632343;27;20063;-57
2021/04/04 09:21:11;;;;;;;5.63;1.50;;;;;;;21.21;16.75;98353.50;10633424;27;20243;-55
2021/04/04 09:26:18;;;;;;;6.63;1.90;;;;;;;19.91;17.39;98362.19;10630856;27;20059;-57
2021/04/04 09:31:24;;;;;;;5.60;1.52;;;;;;;18.76;18.14;98360.78;10640120;27;20387;-56
2021/04/04 09:36:39;;;;;;;7.35;1.50;;;;;;;18.57;18.81;98361.72;10633141;27;20047;-56
2021/04/04 09:41:43;;;;;;;7.80;1.73;;;;;;;19.73;18.57;98363.81;10633240;27;20054;-54
2021/04/04 09:46:52;;;;;;;4.93;1.52;;;;;;;20.75;17.92;98357.78;10632296;27;20051;-56
2021/04/04 09:51:53;;;;;;;4.72;2.40;;;;;;;19.45;18.91;98358.16;10631900;27;20124;-56
2021/04/04 09:56:58;;;;;;;3.92;1.40;;;;;;;19.08;19.34;98348.22;10636763;27;20055;-56
2021/04/04 10:02:00;;;;;;;7.85;2.25;;;;;;;18.70;20.07;98348.31;10642840;27;20146;-57
2021/04/04 10:07:02;;;;;;;6.47;1.88;;;;;;;18.36;20.34;98337.09;10631398;27;20085;-56
